Highland, IL

6:28 AM CST on January 29, 2015 (GMT -0600)
St. Jacob, Il | Change Station
CLOSE
Current Station
Personal Weather Station
Location: St. Jacob, IL
Elevation: 518 ft
Nearby Weather Stations

Elev 518 ft 38.72 °N, 89.77 °W | Updated 0 second ago

Clear
Clear
46.9 °F
Feels Like 44 °F
N
5.8
Wind Variable Wind from WSW
Gusts 8.7 mph

Today
High -- | Low -- °F
--% Chance of Precip.
Yesterday
High -- | Low -- °F
Precip. -- in
7:07 AM 5:16 PM
Waxing Gibbous, 74% visible
Pressure 29.88 in
Visibility 10.0 miles
Clouds Clear
Windchill 44 °F
Dew Point 36 °F
Humidity 67%
Rainfall 0.00 in
Snow Depth Not available.
UV 0 out of 12
Pollen .70 out of 12
Air Quality Not available.
Flu Activity Not available.
METAR KBLV 291158Z AUTO 30015G22KT 10SM CLR 10/04 A2986 RMK AO2 PK WND 28036/43 SLP116 T00950039 10099 20065 53025 $

More Conditions Fewer Conditions

Pressure 29.88 in
Visibility 10.0 miles
Clouds Clear
Windchill 44 °F
Dew Point 36 °F
Humidity 67%
Rainfall 0.00 in
Snow Depth Not available.
UV 0 out of 12
Pollen .70 out of 12
Air Quality Not available.
Flu Activity Not available.
METAR KBLV 291158Z AUTO 30015G22KT 10SM CLR 10/04 A2986 RMK AO2 PK WND 28036/43 SLP116 T00950039 10099 20065 53025 $

More Conditions Fewer Conditions

10-Day Weather Forecast

Almanac

Astronomy

Jan. 29, 2015 Rise Set
Actual Time
Civil Twilight
Nautical Twilight
Astronomical Twilight
Moon
Length of Visible Light
Length of Day
Tomorrow will be .
, % of the Moon is Illuminated

Today's Extremes

State Highs State Lows

Community

WunderPhotos

Upload Photos

1,791,420 photos uploaded!

WunderBlogs® & News

Nearby

Air Quality

  Air Quality AQ Index Pollutant
Not available.

Snow Depth

Station Depth Elevation

Earthquake Activity

City Distance Mag. Time & Date
Minimum magnitude displayed is 2.5.

Coastal Water Temperatures

Place Temperature

Nearby Weather Stations